Terminal Aerodrome Forecast
Issued by NWS Wakefield, VA

Home | Current Version | Previous Version | Text Only | Print | Product List | Glossary On
Versions: 1 2 3 4 5 6 7 8 9 10 11 12 13 14 15
000
FTUS41 KAKQ 311500 AAA
TAFRIC
TAF AMD
KRIC 311548Z 3116/0112 04006KT P6SM FEW035
     FM312000 02005KT P6SM BKN040
     FM010400 03004KT P6SM SCT035 BKN100=

USA.gov is the U.S. government's official web portal to all federal, state and local government web resources and services.